Time;durP1;ratioP1;P1;durP2;ratioP2;P2;SDS_P1;SDS_P2;PMS_P1;PMS_P2;Temp;Humidity;BMP_temperature;BMP_pressure;BME280_temperature;BME280_humidity;BME280_pressure;Samples;Min_cycle;Max_cycle;Signal;HPM_P1;HPM_P2
2022/02/01 00:01:39;;;;;;;5.40;4.97;;;2.40;99.90;;;3.14;100.00;97844.19;5203135;28;20242;-70
2022/02/01 00:04:18;;;;;;;4.90;4.50;;;2.40;99.90;;;3.05;100.00;97848.47;5206551;28;20775;-70
2022/02/01 00:07:00;;;;;;;4.20;3.80;;;2.30;99.90;;;3.03;100.00;97855.03;5204438;28;20589;-71
2022/02/01 00:09:41;;;;;;;4.50;4.20;;;2.30;99.90;;;3.00;100.00;97859.81;5199392;28;20222;-70
2022/02/01 00:12:31;;;;;;;4.60;4.20;;;2.30;99.90;;;2.99;100.00;97870.66;5202978;28;20224;-70
2022/02/01 00:15:28;;;;;;;4.70;4.30;;;2.30;99.90;;;3.00;100.00;97859.81;5202831;28;20226;-69
2022/02/01 00:18:16;;;;;;;4.93;4.50;;;2.30;99.90;;;3.05;100.00;97866.16;5192971;28;20221;-69
2022/02/01 00:33:09;;;;;;;5.30;4.80;;;2.30;99.90;;;3.17;100.00;97864.66;5205487;28;20229;-68
2022/02/01 00:35:25;;;;;;;7.57;6.10;;;2.40;99.90;;;3.04;100.00;97871.06;5225417;28;20226;-68
2022/02/01 00:38:02;;;;;;;7.33;5.83;;;2.40;99.90;;;3.06;100.00;97885.59;5214833;28;20214;-69
2022/02/01 00:40:37;;;;;;;8.10;6.23;;;2.40;99.90;;;3.12;100.00;97878.56;5206020;28;20705;-69
2022/02/01 00:43:12;;;;;;;7.13;6.53;;;2.40;99.90;;;3.15;100.00;97881.34;5204392;28;20213;-70
2022/02/01 00:45:45;;;;;;;7.30;6.40;;;2.50;99.90;;;3.15;100.00;97896.50;5205042;28;20213;-70
2022/02/01 00:48:19;;;;;;;9.17;6.70;;;2.50;99.90;;;3.14;100.00;97884.59;5203949;28;20224;-68
2022/02/01 00:50:52;;;;;;;7.13;6.43;;;2.50;99.90;;;3.17;100.00;97889.03;5202880;28;20707;-68
2022/02/01 00:53:29;;;;;;;8.20;7.23;;;2.50;99.90;;;3.13;100.00;97892.06;5205154;28;20215;-69
2022/02/01 00:56:02;;;;;;;8.03;7.23;;;2.50;99.90;;;3.26;100.00;97893.97;5204401;28;20225;-67
2022/02/01 00:58:36;;;;;;;11.83;7.30;;;2.50;99.90;;;3.21;100.00;97886.03;5206139;28;20229;-68
2022/02/01 01:01:10;;;;;;;9.47;7.00;;;2.50;99.90;;;3.27;100.00;97893.25;5202165;28;20230;-68
2022/02/01 01:03:45;;;;;;;9.53;6.70;;;2.60;99.90;;;3.32;100.00;97912.19;5200816;28;20229;-69
2022/02/01 01:06:19;;;;;;;6.80;6.20;;;2.60;99.90;;;3.35;100.00;97915.88;5201157;28;20215;-69
2022/02/01 01:08:52;;;;;;;8.97;6.27;;;2.60;99.90;;;3.29;100.00;97927.06;5205898;28;20232;-68
2022/02/01 01:11:26;;;;;;;7.83;7.13;;;2.60;99.90;;;3.25;100.00;97930.09;5203960;28;20590;-69
2022/02/01 01:14:30;;;;;;;10.17;7.37;;;2.60;99.90;;;3.26;100.00;97949.53;5203454;28;20239;-69
2022/02/01 01:17:38;;;;;;;7.13;6.43;;;2.60;99.90;;;3.23;100.00;97955.22;5201579;28;20225;-70
2022/02/01 01:46:02;;;;;;;3.80;3.20;;;2.50;99.90;;;3.34;100.00;97988.97;5203199;28;20220;-68
2022/02/01 01:54:20;;;;;;;3.43;3.23;;;2.30;99.90;;;2.97;100.00;98010.13;5181324;28;20235;-70
2022/02/01 01:56:56;;;;;;;2.60;2.50;;;2.10;99.90;;;2.75;100.00;98017.41;5201858;28;20224;-71
2022/02/01 01:59:30;;;;;;;3.40;3.30;;;2.00;99.90;;;2.53;100.00;98030.66;5203747;28;20225;-71
2022/02/01 02:02:04;;;;;;;2.63;2.53;;;1.80;99.90;;;2.43;100.00;98035.59;5201219;28;20225;-71
2022/02/01 02:04:37;;;;;;;3.20;3.00;;;1.70;99.90;;;2.25;100.00;98027.25;5202394;28;20307;-71
2022/02/01 02:07:12;;;;;;;3.20;3.00;;;1.60;99.90;;;2.19;100.00;98016.59;5199586;28;20607;-71
2022/02/01 02:09:47;;;;;;;3.03;2.93;;;1.50;99.90;;;2.10;100.00;98039.34;5203789;28;20218;-72
2022/02/01 02:12:37;;;;;;;2.90;2.80;;;1.50;99.90;;;2.05;100.00;98034.63;5202970;28;20315;-71
2022/02/01 02:15:09;;;;;;;3.27;3.10;;;1.40;99.90;;;1.99;100.00;98042.50;5203016;28;20579;-71
2022/02/01 02:17:43;;;;;;;3.30;3.10;;;1.30;99.90;;;1.89;100.00;98039.88;5202607;28;20235;-72
2022/02/01 02:20:16;;;;;;;3.43;3.13;;;1.30;99.90;;;1.77;100.00;98047.16;5203190;28;20217;-72
2022/02/01 02:22:50;;;;;;;3.30;3.10;;;1.20;99.90;;;1.68;100.00;98059.78;5202402;28;20242;-72
2022/02/01 02:25:23;;;;;;;3.13;3.03;;;1.20;99.90;;;1.70;100.00;98043.19;5201676;28;20595;-72
2022/02/01 02:27:58;;;;;;;3.17;2.97;;;1.20;99.90;;;1.65;100.00;98036.84;5203233;28;20222;-73
2022/02/01 02:30:31;;;;;;;3.13;3.03;;;1.10;99.90;;;1.58;100.00;98040.41;5203145;28;20232;-73
2022/02/01 02:33:06;;;;;;;3.50;3.23;;;1.10;99.90;;;1.54;100.00;98048.41;5202814;28;20224;-74
2022/02/01 02:35:52;;;;;;;3.50;3.30;;;1.10;99.90;;;1.56;100.00;98051.09;5198439;28;20223;-74
2022/02/01 02:38:33;;;;;;;3.13;2.93;;;1.10;99.90;;;1.57;100.00;98061.31;5204409;28;20220;-74
2022/02/01 02:41:27;;;;;;;3.50;3.20;;;1.10;99.90;;;1.56;100.00;98064.56;5202982;28;20222;-73
2022/02/01 02:46:54;;;;;;;3.23;3.03;;;1.10;99.90;;;1.56;100.00;98078.78;5203498;28;20214;-73
2022/02/01 02:49:27;;;;;;;3.77;3.47;;;1.10;99.90;;;1.55;100.00;98077.03;5202231;28;20225;-73
2022/02/01 02:52:00;;;;;;;3.73;3.53;;;1.10;99.90;;;1.60;100.00;98067.38;5202719;28;20229;-73
2022/02/01 02:54:35;;;;;;;4.13;3.77;;;1.20;99.90;;;1.61;100.00;98044.88;5202391;28;20234;-73
2022/02/01 02:57:09;;;;;;;3.90;3.60;;;1.20;99.90;;;1.62;100.00;98071.81;5205980;28;20751;-73
2022/02/01 02:59:42;;;;;;;4.37;3.97;;;1.20;99.90;;;1.63;100.00;98066.06;5207753;28;20253;-72
2022/02/01 03:02:15;;;;;;;5.00;4.60;;;1.30;99.90;;;1.63;100.00;98070.19;5201755;28;20229;-72
2022/02/01 03:04:50;;;;;;;6.77;4.67;;;1.20;99.90;;;1.62;100.00;98064.25;5205753;28;20575;-72
2022/02/01 03:07:23;;;;;;;5.43;4.30;;;1.30;99.90;;;1.61;100.00;98070.06;5206446;28;20963;-72
2022/02/01 03:09:57;;;;;;;5.43;4.70;;;1.20;99.90;;;1.61;100.00;98072.56;5206632;28;20218;-73
2022/02/01 03:12:55;;;;;;;6.17;5.47;;;1.30;99.90;;;1.66;100.00;98071.38;5206889;28;20375;-73
2022/02/01 03:15:40;;;;;;;6.63;5.57;;;1.30;99.90;;;1.71;100.00;98070.16;5207127;28;20218;-72
2022/02/01 03:21:04;;;;;;;12.53;6.50;;;1.40;99.90;;;1.79;100.00;98094.44;5204359;28;20217;-73
2022/02/01 03:23:37;;;;;;;9.10;6.17;;;1.40;99.90;;;1.92;100.00;98076.34;5206756;28;20232;-73
2022/02/01 03:26:11;;;;;;;11.80;7.20;;;1.50;99.90;;;1.98;100.00;98081.06;5206838;28;20582;-72
2022/02/01 03:28:44;;;;;;;13.63;7.43;;;1.60;99.90;;;1.96;100.00;98096.03;5207597;28;20226;-73
2022/02/01 03:31:18;;;;;;;13.40;6.77;;;1.50;99.90;;;1.97;100.00;98099.44;5201184;28;20224;-72
2022/02/01 03:33:51;;;;;;;16.10;6.80;;;1.50;99.90;;;2.14;100.00;98089.28;5206849;28;20222;-71
2022/02/01 03:36:24;;;;;;;19.93;7.97;;;1.60;99.90;;;2.08;100.00;98093.75;5204738;28;20228;-72
2022/02/01 03:38:59;;;;;;;16.37;6.70;;;1.60;99.90;;;2.10;100.00;98094.81;5207368;28;20236;-71
2022/02/01 03:41:34;;;;;;;18.00;7.47;;;1.60;99.90;;;2.17;100.00;98094.63;5205386;28;20235;-72
2022/02/01 03:44:08;;;;;;;19.63;7.87;;;1.60;99.90;;;2.18;100.00;98111.53;5206509;28;20222;-71
2022/02/01 03:46:46;;;;;;;14.47;7.47;;;1.60;99.90;;;2.24;100.00;98102.00;5205728;28;20221;-71
2022/02/01 03:49:19;;;;;;;20.57;8.17;;;1.70;99.90;;;2.24;100.00;98113.75;5205086;28;20221;-71
2022/02/01 03:51:52;;;;;;;22.97;8.80;;;1.70;99.90;;;2.34;100.00;98107.91;5205288;28;20220;-71
2022/02/01 03:54:28;;;;;;;22.90;9.23;;;1.80;99.90;;;2.35;100.00;98109.69;5206009;28;20244;-71
2022/02/01 03:57:05;;;;;;;22.60;8.47;;;1.80;99.90;;;2.40;100.00;98111.88;5206239;28;20242;-70
2022/02/01 03:59:38;;;;;;;22.60;8.40;;;1.70;99.90;;;2.36;100.00;98114.88;5206410;28;20224;-72
2022/02/01 04:02:13;;;;;;;29.97;9.20;;;1.80;99.90;;;2.36;100.00;98126.59;5204745;28;20226;-72
2022/02/01 04:04:52;;;;;;;20.00;8.30;;;1.80;99.90;;;2.39;100.00;98121.84;5204281;28;20223;-72
2022/02/01 04:07:25;;;;;;;24.50;8.33;;;1.80;99.90;;;2.42;100.00;98140.66;5204081;28;20213;-70
2022/02/01 04:09:58;;;;;;;27.20;9.33;;;1.80;99.90;;;2.42;100.00;98143.16;5205796;28;20586;-70
2022/02/01 04:12:33;;;;;;;23.37;8.03;;;1.80;99.90;;;2.51;100.00;98148.19;5203281;28;20297;-70
2022/02/01 04:15:08;;;;;;;33.10;8.63;;;1.90;99.90;;;2.51;100.00;98162.44;5205406;28;20608;-70
2022/02/01 04:17:41;;;;;;;24.23;8.00;;;1.90;99.90;;;2.61;100.00;98165.06;5205138;28;20229;-70
2022/02/01 04:20:15;;;;;;;23.33;7.97;;;1.80;99.90;;;2.48;100.00;98175.66;5206590;28;20220;-69
2022/02/01 04:22:48;;;;;;;22.47;8.10;;;1.80;99.90;;;2.42;100.00;98192.75;5204188;28;20226;-70
2022/02/01 04:25:21;;;;;;;23.60;8.43;;;1.80;99.90;;;2.50;100.00;98198.50;5202147;28;20224;-69
2022/02/01 04:27:57;;;;;;;28.53;8.77;;;1.80;99.90;;;2.47;100.00;98202.50;5205329;28;20601;-69
2022/02/01 04:30:30;;;;;;;29.90;9.13;;;1.80;99.90;;;2.47;100.00;98194.06;5205033;28;20217;-69
2022/02/01 04:33:07;;;;;;;28.23;8.43;;;1.80;99.90;;;2.43;100.00;98191.97;5202980;28;20238;-69
2022/02/01 04:35:41;;;;;;;22.87;7.97;;;1.80;99.90;;;2.48;100.00;98194.19;5205437;28;20318;-70
2022/02/01 04:38:14;;;;;;;26.87;8.03;;;1.80;99.90;;;2.52;100.00;98202.94;5202493;28;20232;-69
2022/02/01 04:40:52;;;;;;;24.83;8.00;;;1.80;99.90;;;2.55;100.00;98198.19;5203943;28;20219;-70
2022/02/01 04:43:27;;;;;;;20.70;7.63;;;1.80;99.90;;;2.50;100.00;98211.13;5199011;28;20885;-69
2022/02/01 04:46:03;;;;;;;23.80;7.77;;;1.80;99.90;;;2.59;100.00;98202.75;5205738;28;20223;-69
2022/02/01 04:48:37;;;;;;;24.77;7.77;;;1.80;99.90;;;2.59;100.00;98210.34;5201730;28;20209;-70
2022/02/01 04:51:10;;;;;;;21.13;7.40;;;1.70;99.90;;;2.56;100.00;98206.66;5197853;28;20234;-69
2022/02/01 04:53:43;;;;;;;29.20;7.40;;;1.70;99.90;;;2.50;100.00;98209.47;5203349;28;20310;-68
2022/02/01 04:56:18;;;;;;;23.57;7.73;;;1.70;99.90;;;2.52;100.00;98210.53;5204488;28;20218;-69
2022/02/01 04:58:53;;;;;;;19.27;7.43;;;1.60;99.90;;;2.46;100.00;98203.28;5203284;28;20225;-67
2022/02/01 05:01:36;;;;;;;16.37;7.27;;;1.60;99.90;;;2.42;100.00;98197.78;5203030;28;20584;-69
2022/02/01 05:04:12;;;;;;;24.77;7.03;;;1.60;99.90;;;2.35;100.00;98195.44;5203855;28;20258;-69
2022/02/01 05:06:47;;;;;;;25.13;7.20;;;1.60;99.90;;;2.28;100.00;98213.25;5202789;28;20221;-69
2022/02/01 05:09:21;;;;;;;26.17;7.30;;;1.50;99.90;;;2.35;100.00;98223.19;5205098;28;20731;-67
2022/02/01 05:11:56;;;;;;;19.13;7.40;;;1.50;99.90;;;2.30;100.00;98224.38;5201758;28;20752;-68
2022/02/01 05:14:31;;;;;;;20.60;6.90;;;1.40;99.90;;;2.30;100.00;98239.50;5204775;28;20229;-70
2022/02/01 05:17:05;;;;;;;22.33;6.77;;;1.50;99.90;;;2.34;100.00;98239.03;5203591;28;20224;-71
2022/02/01 05:19:48;;;;;;;19.43;6.93;;;1.50;99.90;;;2.31;100.00;98243.78;5202827;28;20237;-70
2022/02/01 05:22:24;;;;;;;27.90;7.73;;;1.50;99.90;;;2.30;100.00;98247.06;5201252;28;20228;-69
2022/02/01 05:24:58;;;;;;;23.80;6.67;;;1.50;99.90;;;2.23;100.00;98251.53;5201125;28;20305;-69
2022/02/01 05:27:31;;;;;;;19.43;7.57;;;1.50;99.90;;;2.24;100.00;98255.84;5205095;28;20235;-70
2022/02/01 05:30:07;;;;;;;22.97;7.53;;;1.40;99.90;;;2.33;100.00;98248.25;5203457;28;20218;-71
2022/02/01 05:32:40;;;;;;;18.97;6.93;;;1.40;99.90;;;2.28;100.00;98264.56;5200822;28;20696;-70
2022/02/01 05:35:13;;;;;;;16.73;7.07;;;1.40;99.90;;;2.34;100.00;98271.84;5204330;28;20232;-69
2022/02/01 05:37:46;;;;;;;29.13;7.47;;;1.40;99.90;;;2.24;100.00;98272.59;5200483;28;20224;-68
2022/02/01 05:40:20;;;;;;;16.50;6.40;;;1.40;99.90;;;2.39;100.00;98275.69;5201846;28;20228;-68
2022/02/01 05:43:00;;;;;;;19.47;7.40;;;1.50;99.90;;;2.31;100.00;98274.06;5202957;28;20253;-66
2022/02/01 05:45:37;;;;;;;17.90;7.13;;;1.40;99.90;;;2.20;100.00;98276.47;5201136;28;20616;-69
2022/02/01 05:48:11;;;;;;;22.30;7.23;;;1.50;99.90;;;2.27;100.00;98264.44;5199824;28;20228;-69
2022/02/01 05:50:47;;;;;;;13.77;6.37;;;1.40;99.90;;;2.30;100.00;98272.28;5201217;28;20630;-67
2022/02/01 05:53:20;;;;;;;16.80;6.97;;;1.50;99.90;;;2.30;100.00;98267.25;5203522;28;20213;-69
2022/02/01 05:55:53;;;;;;;19.60;7.17;;;1.50;99.90;;;2.26;100.00;98263.53;5201908;28;20230;-68
2022/02/01 05:58:27;;;;;;;22.10;7.13;;;1.50;99.90;;;2.32;100.00;98255.66;5204435;28;20227;-69
2022/02/01 06:01:01;;;;;;;29.10;7.53;;;1.50;99.90;;;2.30;100.00;98253.00;5204290;28;20221;-68
2022/02/01 06:03:35;;;;;;;19.77;7.00;;;1.50;99.90;;;2.35;100.00;98255.97;5203982;28;20639;-68
2022/02/01 06:06:08;;;;;;;19.63;6.83;;;1.50;99.90;;;2.39;100.00;98253.00;5204351;28;20220;-69
2022/02/01 06:08:41;;;;;;;17.33;7.17;;;1.50;99.90;;;2.40;100.00;98264.84;5201260;28;20226;-68
2022/02/01 06:11:14;;;;;;;20.70;6.70;;;1.60;99.90;;;2.37;100.00;98272.13;5206107;28;20312;-68
2022/02/01 06:13:47;;;;;;;19.43;6.67;;;1.60;99.90;;;2.39;100.00;98274.03;5205498;28;20236;-69
2022/02/01 06:16:23;;;;;;;23.23;7.03;;;1.60;99.90;;;2.45;100.00;98289.75;5204192;28;20254;-69
2022/02/01 06:18:56;;;;;;;19.93;6.53;;;1.60;99.90;;;2.43;100.00;98297.91;5203490;28;20766;-68
2022/02/01 06:21:29;;;;;;;21.27;6.80;;;1.60;99.90;;;2.42;100.00;98291.09;5199172;28;20247;-69
2022/02/01 06:24:05;;;;;;;22.63;6.87;;;1.60;99.90;;;2.46;100.00;98280.56;5195247;28;21052;-70
2022/02/01 06:29:12;;;;;;;15.40;7.20;;;1.60;99.90;;;2.40;100.00;98292.59;5224524;28;20284;-71
2022/02/01 06:31:46;;;;;;;17.07;5.97;;;1.50;99.90;;;2.41;100.00;98304.47;5218697;28;20223;-71
2022/02/01 06:34:19;;;;;;;13.00;5.27;;;1.60;99.90;;;2.38;100.00;98301.66;5221728;28;20266;-71
2022/02/01 06:36:53;;;;;;;12.73;5.40;;;1.50;99.90;;;2.39;100.00;98318.56;5227011;28;20220;-71
2022/02/01 06:39:27;;;;;;;20.93;5.90;;;1.50;99.90;;;2.38;100.00;98321.84;5226026;28;20231;-71
2022/02/01 06:42:00;;;;;;;15.67;5.90;;;1.60;99.90;;;2.40;100.00;98310.25;5227133;28;20212;-71
2022/02/01 06:44:33;;;;;;;18.07;6.00;;;1.60;99.90;;;2.38;100.00;98311.75;5215060;28;20221;-71
2022/02/01 06:47:08;;;;;;;12.17;5.37;;;1.50;99.90;;;2.37;100.00;98315.88;5222122;28;20237;-71
2022/02/01 06:49:42;;;;;;;9.77;5.07;;;1.50;99.90;;;2.41;100.00;98324.66;5223999;28;20699;-71
2022/02/01 06:52:15;;;;;;;12.90;4.30;;;1.60;99.90;;;2.44;100.00;98327.47;5224014;28;20229;-71
2022/02/01 06:54:48;;;;;;;13.80;5.03;;;1.60;99.90;;;2.47;100.00;98337.84;5215985;28;20241;-70
2022/02/01 06:57:21;;;;;;;21.20;5.77;;;1.60;99.90;;;2.39;100.00;98344.66;5221899;28;20231;-71
2022/02/01 06:59:54;;;;;;;19.03;5.57;;;1.60;99.90;;;2.48;100.00;98347.19;5223558;28;20228;-70
2022/02/01 07:02:28;;;;;;;14.53;5.30;;;1.60;99.90;;;2.48;100.00;98355.63;5226328;28;20224;-71
2022/02/01 07:05:02;;;;;;;20.70;4.67;;;1.50;99.90;;;2.49;100.00;98356.56;5226858;28;20691;-70
2022/02/01 07:07:35;;;;;;;18.13;5.33;;;1.50;99.90;;;2.46;100.00;98352.09;5226792;28;20226;-70
2022/02/01 07:10:09;;;;;;;13.80;5.77;;;1.50;99.90;;;2.47;100.00;98379.09;5220575;28;20221;-70
2022/02/01 07:12:42;;;;;;;16.13;5.57;;;1.50;99.90;;;2.46;100.00;98394.97;5217467;28;20236;-70
2022/02/01 07:15:16;;;;;;;14.03;5.40;;;1.60;99.90;;;2.48;100.00;98397.63;5228322;28;20228;-70
2022/02/01 07:17:52;;;;;;;16.70;5.17;;;1.60;99.90;;;2.49;100.00;98394.41;5228314;28;20232;-70
2022/02/01 07:20:26;;;;;;;13.70;5.40;;;1.60;99.90;;;2.51;100.00;98397.94;5219263;28;20714;-71
2022/02/01 07:22:59;;;;;;;10.53;5.40;;;1.70;99.90;;;2.52;100.00;98396.28;5224905;28;20220;-70
2022/02/01 07:25:43;;;;;;;16.00;5.67;;;1.60;99.90;;;2.55;100.00;98401.63;5227525;28;20219;-70
2022/02/01 07:28:18;;;;;;;19.30;5.90;;;1.60;99.90;;;2.70;100.00;98408.16;5211749;28;20225;-71
2022/02/01 07:30:51;;;;;;;11.00;4.93;;;1.70;99.90;;;2.63;100.00;98391.56;5224702;28;20625;-70
2022/02/01 07:33:26;;;;;;;14.20;5.67;;;1.70;99.90;;;2.69;100.00;98392.16;5228705;28;20232;-71
2022/02/01 07:36:01;;;;;;;24.87;5.43;;;1.60;99.90;;;2.56;100.00;98394.22;5218773;28;20225;-71
2022/02/01 07:38:34;;;;;;;11.20;4.90;;;1.60;99.90;;;2.55;100.00;98382.38;5223104;28;20220;-70
2022/02/01 07:41:07;;;;;;;13.13;5.17;;;1.60;99.90;;;2.53;100.00;98381.31;5227443;28;20618;-70
2022/02/01 07:43:41;;;;;;;13.17;5.23;;;1.60;99.90;;;2.63;100.00;98389.03;5227549;28;20225;-71
2022/02/01 07:46:15;;;;;;;11.77;4.73;;;1.70;99.90;;;2.65;100.00;98389.16;5214780;28;20256;-70
2022/02/01 07:48:50;;;;;;;11.87;5.20;;;1.70;99.90;;;2.68;100.00;98386.94;5218581;28;20225;-70
2022/02/01 07:51:23;;;;;;;13.67;6.00;;;1.70;99.90;;;2.67;100.00;98370.91;5227485;28;20235;-70
2022/02/01 07:53:56;;;;;;;14.17;5.03;;;1.70;99.90;;;2.67;100.00;98382.66;5217761;28;20227;-70
2022/02/01 07:56:29;;;;;;;19.87;5.40;;;1.70;99.90;;;2.63;100.00;98386.50;5222941;28;20228;-70
2022/02/01 07:59:03;;;;;;;12.47;5.03;;;1.60;99.90;;;2.73;100.00;98377.28;5226549;28;20684;-70
2022/02/01 08:01:36;;;;;;;19.73;5.33;;;1.60;99.90;;;2.82;100.00;98376.53;5219758;28;20222;-70
2022/02/01 08:04:11;;;;;;;18.27;5.27;;;1.60;99.90;;;2.74;100.00;98379.94;5216840;28;20317;-70
2022/02/01 08:06:44;;;;;;;13.27;5.43;;;1.60;99.90;;;2.68;100.00;98382.78;5215801;28;20593;-70
2022/02/01 08:09:24;;;;;;;13.23;4.60;;;1.60;99.90;;;2.71;100.00;98377.13;5213208;28;20584;-71
2022/02/01 08:11:57;;;;;;;13.13;5.20;;;1.60;99.90;;;2.73;100.00;98393.31;5224680;28;20217;-71
2022/02/01 08:15:20;;;;;;;16.40;5.27;;;1.70;99.90;;;2.74;100.00;98389.16;5220499;28;20218;-71
2022/02/01 08:17:46;;;;;;;10.63;4.20;;;1.80;99.90;;;2.79;100.00;98404.00;5215774;28;20220;-71
2022/02/01 08:20:24;;;;;;;13.30;4.67;;;1.80;99.90;;;2.88;100.00;98393.88;5223283;28;20222;-69
2022/02/01 08:23:02;;;;;;;11.30;4.90;;;1.80;99.90;;;2.91;100.00;98394.16;5227107;28;20217;-70
2022/02/01 08:25:36;;;;;;;12.77;4.73;;;1.80;99.90;;;2.97;100.00;98366.97;5219154;28;20222;-70
2022/02/01 08:28:09;;;;;;;16.60;5.50;;;2.00;99.90;;;3.03;100.00;98375.13;5218457;28;20236;-70
2022/02/01 08:30:43;;;;;;;13.27;5.17;;;2.00;99.90;;;3.10;100.00;98390.13;5210950;28;20224;-70
2022/02/01 08:33:16;;;;;;;14.13;5.20;;;2.00;99.90;;;3.05;100.00;98398.00;5225270;28;20218;-71
2022/02/01 08:35:50;;;;;;;20.20;5.73;;;2.10;99.90;;;3.21;100.00;98392.78;5214454;28;20217;-70
2022/02/01 08:38:24;;;;;;;12.80;5.70;;;2.00;99.90;;;3.22;100.00;98402.13;5214073;28;20214;-69
2022/02/01 08:40:58;;;;;;;10.93;5.33;;;2.10;99.90;;;3.28;100.00;98402.69;5216979;28;20227;-69
2022/02/01 08:43:31;;;;;;;12.40;5.20;;;2.10;99.90;;;3.19;100.00;98407.78;5220201;28;20617;-69
2022/02/01 08:46:05;;;;;;;12.47;4.97;;;2.00;99.90;;;2.98;100.00;98415.88;5224138;28;20631;-69
2022/02/01 08:48:38;;;;;;;13.73;4.83;;;2.00;99.90;;;3.14;100.00;98414.03;5214763;28;20227;-69
2022/02/01 08:51:15;;;;;;;6.73;4.70;;;2.10;99.90;;;3.23;100.00;98403.91;5226843;28;20214;-69
2022/02/01 08:53:55;;;;;;;11.73;4.67;;;2.10;99.90;;;3.29;100.00;98399.41;5220404;28;20217;-69
2022/02/01 08:59:33;;;;;;;9.13;4.53;;;2.20;99.90;;;3.42;100.00;98397.28;5225036;28;20316;-69
2022/02/01 09:02:08;;;;;;;13.43;4.63;;;2.30;99.90;;;3.47;100.00;98392.69;5216374;28;20667;-68
2022/02/01 09:04:41;;;;;;;11.70;4.30;;;2.40;99.90;;;3.54;100.00;98395.00;5218408;28;20217;-68
2022/02/01 09:07:16;;;;;;;14.93;4.80;;;2.40;99.90;;;3.59;100.00;98389.63;5217447;28;20233;-69
2022/02/01 09:09:50;;;;;;;12.90;4.70;;;2.30;99.90;;;3.54;100.00;98402.59;5228141;28;20770;-69
2022/02/01 09:12:23;;;;;;;12.00;4.53;;;2.20;99.90;;;3.53;100.00;98411.81;5209137;28;20248;-69
2022/02/01 09:14:56;;;;;;;12.03;4.83;;;2.20;99.90;;;3.52;100.00;98407.53;5209322;28;20596;-69
2022/02/01 09:17:50;;;;;;;16.80;5.20;;;2.20;99.90;;;3.55;100.00;98405.28;5218041;28;20229;-69
2022/02/01 09:20:24;;;;;;;9.47;4.60;;;2.20;99.90;;;3.50;100.00;98410.66;5224871;28;20263;-68
2022/02/01 09:23:00;;;;;;;13.27;5.23;;;2.20;99.90;;;3.47;100.00;98405.31;5214707;28;20227;-68
2022/02/01 09:25:34;;;;;;;14.83;5.33;;;2.20;99.90;;;3.48;100.00;98400.38;5222712;28;20300;-68
2022/02/01 09:28:07;;;;;;;13.23;4.93;;;2.20;99.90;;;3.43;100.00;98405.75;5223842;28;20231;-68
2022/02/01 09:30:40;;;;;;;13.37;5.27;;;2.30;99.90;;;3.47;100.00;98403.66;5215317;28;20220;-68
2022/02/01 09:33:13;;;;;;;13.17;5.00;;;2.20;99.90;;;3.60;100.00;98401.50;5219251;28;20613;-67
2022/02/01 09:35:46;;;;;;;10.90;5.03;;;2.30;99.90;;;3.50;100.00;98401.44;5217549;28;20242;-68
2022/02/01 09:38:21;;;;;;;7.67;4.60;;;2.30;99.90;;;3.52;100.00;98384.78;5223761;28;20226;-67
2022/02/01 09:40:54;;;;;;;9.70;5.10;;;2.40;99.90;;;3.57;100.00;98365.84;5219854;28;20705;-68
2022/02/01 09:43:27;;;;;;;11.80;5.10;;;2.40;99.90;;;3.66;99.76;98353.16;5216581;28;20594;-68
2022/02/01 09:46:01;;;;;;;16.03;5.73;;;2.40;99.90;;;3.64;99.04;98356.34;5224454;28;20217;-67
2022/02/01 09:48:50;;;;;;;10.83;6.03;;;2.40;99.90;;;3.64;100.00;98351.28;5229561;28;20217;-69
2022/02/01 09:51:23;;;;;;;11.43;5.70;;;2.50;99.90;;;3.80;98.52;98351.91;5222488;28;20213;-69
2022/02/01 09:54:18;;;;;;;12.57;6.47;;;2.50;99.90;;;3.64;99.15;98358.84;5217073;28;20217;-70
2022/02/01 09:56:52;;;;;;;11.43;5.70;;;2.50;99.90;;;3.81;98.21;98364.69;5216510;28;20578;-69
2022/02/01 09:59:31;;;;;;;9.97;4.70;;;2.60;99.90;;;3.69;97.48;98362.66;5217046;28;20246;-70
2022/02/01 10:02:09;;;;;;;12.23;5.73;;;2.60;99.90;;;3.65;97.99;98373.25;5220345;28;20221;-69
2022/02/01 10:04:42;;;;;;;11.77;5.60;;;2.60;99.90;;;3.60;98.55;98366.13;5212751;28;20308;-69
2022/02/01 10:07:18;;;;;;;9.33;5.97;;;2.60;99.90;;;3.75;98.84;98378.38;5213394;28;20743;-69
2022/02/01 10:09:57;;;;;;;15.37;6.37;;;2.60;99.90;;;3.68;98.73;98376.06;5219693;28;20213;-69
2022/02/01 10:12:37;;;;;;;10.00;5.27;;;2.50;99.90;;;3.67;97.56;98371.78;5224068;28;20220;-69
2022/02/01 10:15:23;;;;;;;9.60;5.70;;;2.60;99.90;;;3.71;97.67;98372.16;5221158;28;20221;-69
2022/02/01 10:17:59;;;;;;;8.50;5.43;;;2.60;99.90;;;3.72;97.95;98368.00;5218772;28;20234;-69
2022/02/01 10:20:37;;;;;;;10.03;5.50;;;2.70;99.90;;;3.84;97.77;98370.03;5222827;28;20407;-69
2022/02/01 10:23:22;;;;;;;9.30;5.13;;;2.80;99.90;;;3.89;98.93;98367.91;5213483;28;20224;-69
2022/02/01 10:26:05;;;;;;;9.90;4.80;;;2.90;99.90;;;3.91;96.84;98353.75;5224479;28;20237;-68
2022/02/01 10:29:01;;;;;;;9.37;5.40;;;2.90;99.90;;;4.03;97.90;98359.94;5220147;28;20240;-68
2022/02/01 10:31:41;;;;;;;11.73;5.33;;;3.00;99.90;;;4.02;98.44;98344.63;5211901;28;20750;-69
2022/02/01 10:34:29;;;;;;;9.47;5.13;;;2.90;99.90;;;4.09;98.43;98352.00;5215180;28;20302;-68
2022/02/01 10:37:04;;;;;;;15.80;5.30;;;3.00;99.90;;;4.01;97.58;98335.28;5222183;28;20234;-68
2022/02/01 10:39:37;;;;;;;9.17;5.40;;;3.00;99.90;;;4.06;97.75;98331.47;5218748;28;20547;-68
2022/02/01 10:42:14;;;;;;;7.23;4.90;;;3.00;99.90;;;4.06;98.19;98332.41;5223245;28;20243;-68
2022/02/01 10:44:50;;;;;;;7.40;4.77;;;3.10;99.90;;;4.06;98.23;98324.81;5217792;28;20231;-68
2022/02/01 10:47:34;;;;;;;11.03;5.10;;;3.20;99.90;;;4.25;98.79;98329.84;5217587;28;20231;-68
2022/02/01 10:50:10;;;;;;;6.93;4.47;;;3.30;99.90;;;4.34;97.35;98324.72;5222066;28;20496;-68
2022/02/01 10:52:46;;;;;;;10.00;5.00;;;3.40;99.90;;;4.53;97.83;98323.81;5221919;28;20231;-68
2022/02/01 10:55:21;;;;;;;8.00;4.70;;;3.60;99.90;;;4.49;94.97;98315.97;5216597;28;20219;-68
2022/02/01 10:57:55;;;;;;;7.27;4.47;;;3.70;99.90;;;4.64;97.17;98313.00;5223877;28;20223;-68
2022/02/01 11:00:28;;;;;;;9.87;4.90;;;3.80;99.90;;;4.55;95.24;98307.09;5222902;28;20710;-68
2022/02/01 11:03:03;;;;;;;7.60;4.50;;;3.70;99.90;;;4.58;93.11;98299.78;5217342;28;20238;-68
2022/02/01 11:05:37;;;;;;;6.33;3.83;;;3.60;99.90;;;4.46;91.97;98285.31;5226978;28;20633;-68
2022/02/01 11:08:15;;;;;;;7.73;4.47;;;3.70;99.90;;;4.39;91.09;98264.41;5213813;28;20578;-68
2022/02/01 11:10:51;;;;;;;6.87;3.73;;;3.70;99.90;;;4.32;89.53;98263.00;5223514;28;20231;-67
2022/02/01 11:13:39;;;;;;;6.73;3.87;;;3.60;99.90;;;4.25;88.01;98261.53;5219498;28;20244;-68
2022/02/01 11:16:19;;;;;;;6.20;3.70;;;3.60;99.90;;;4.13;88.73;98259.59;5221489;28;20228;-67
2022/02/01 11:19:02;;;;;;;6.03;3.93;;;3.50;99.90;;;4.22;90.63;98252.81;5226315;28;20617;-67
2022/02/01 11:21:45;;;;;;;7.90;4.00;;;3.50;99.90;;;4.19;90.01;98255.06;5226487;28;20239;-68
2022/02/01 11:24:30;;;;;;;5.20;3.30;;;3.60;99.90;;;4.26;89.76;98234.59;5222237;28;20342;-68
2022/02/01 11:27:15;;;;;;;6.53;3.27;;;3.60;99.90;;;4.21;90.73;98231.69;5221115;28;20707;-68
2022/02/01 11:30:11;;;;;;;6.77;3.57;;;3.60;99.90;;;4.11;90.16;98216.44;5223188;28;20223;-68
2022/02/01 11:32:52;;;;;;;4.37;3.37;;;3.50;99.90;;;3.98;87.42;98204.38;5229431;28;20216;-68
2022/02/01 11:35:26;;;;;;;6.33;3.90;;;3.50;99.90;;;3.99;89.27;98202.75;5215427;28;20221;-68
2022/02/01 11:38:18;;;;;;;4.83;3.63;;;3.50;99.90;;;3.93;88.36;98185.38;5219648;28;20741;-68
2022/02/01 11:41:04;;;;;;;4.33;3.60;;;3.40;99.90;;;3.91;88.82;98194.47;5221862;28;20645;-67
2022/02/01 11:43:45;;;;;;;5.60;3.37;;;3.40;99.90;;;4.14;92.47;98185.47;5221158;28;20258;-67
2022/02/01 11:46:21;;;;;;;4.27;3.60;;;3.50;99.90;;;4.16;91.30;98181.44;5219994;28;20239;-68
2022/02/01 11:48:55;;;;;;;5.57;3.60;;;3.40;99.90;;;4.18;90.40;98172.34;5221539;28;20309;-68
2022/02/01 11:51:48;;;;;;;6.60;3.77;;;3.50;99.90;;;4.08;88.85;98163.06;5229899;28;20220;-68
2022/02/01 11:54:25;;;;;;;5.50;3.83;;;3.50;99.90;;;4.06;88.39;98164.56;5225382;28;20222;-67
2022/02/01 11:57:12;;;;;;;5.60;3.80;;;3.50;99.90;;;4.12;91.99;98174.31;5228425;28;20652;-67